sensor_id;sensor_type;location;lat;lon;timestamp;temperature;humidity
19397;DHT22;9834;48.076;11.878;2023-12-22T00:01:14;4.70;99.90
19397;DHT22;9834;48.076;11.878;2023-12-22T00:03:42;4.50;99.90
19397;DHT22;9834;48.076;11.878;2023-12-22T00:06:12;4.20;99.90
19397;DHT22;9834;48.076;11.878;2023-12-22T00:08:41;4.00;99.90
19397;DHT22;9834;48.076;11.878;2023-12-22T00:11:08;3.80;99.90
19397;DHT22;9834;48.076;11.878;2023-12-22T00:13:39;3.70;99.90
19397;DHT22;9834;48.076;11.878;2023-12-22T00:16:09;3.50;99.90
19397;DHT22;9834;48.076;11.878;2023-12-22T00:18:39;3.40;99.90
19397;DHT22;9834;48.076;11.878;2023-12-22T00:21:10;3.10;99.90
19397;DHT22;9834;48.076;11.878;2023-12-22T00:23:43;2.40;99.90
19397;DHT22;9834;48.076;11.878;2023-12-22T00:26:11;1.90;99.90
19397;DHT22;9834;48.076;11.878;2023-12-22T00:28:40;1.50;99.90
19397;DHT22;9834;48.076;11.878;2023-12-22T00:31:11;1.30;99.90
19397;DHT22;9834;48.076;11.878;2023-12-22T00:33:41;1.10;99.90
19397;DHT22;9834;48.076;11.878;2023-12-22T00:36:11;1.00;99.90
19397;DHT22;9834;48.076;11.878;2023-12-22T00:38:43;1.00;99.90
19397;DHT22;9834;48.076;11.878;2023-12-22T00:41:10;1.00;99.90
19397;DHT22;9834;48.076;11.878;2023-12-22T00:43:39;1.00;99.90
19397;DHT22;9834;48.076;11.878;2023-12-22T00:46:06;0.90;99.90
19397;DHT22;9834;48.076;11.878;2023-12-22T00:48:34;0.90;99.90
19397;DHT22;9834;48.076;11.878;2023-12-22T00:51:01;0.90;99.90
19397;DHT22;9834;48.076;11.878;2023-12-22T00:53:32;0.90;99.90
19397;DHT22;9834;48.076;11.878;2023-12-22T00:56:04;1.00;99.90
19397;DHT22;9834;48.076;11.878;2023-12-22T00:58:33;1.00;99.90
19397;DHT22;9834;48.076;11.878;2023-12-22T01:01:03;1.00;99.90
19397;DHT22;9834;48.076;11.878;2023-12-22T01:03:31;1.00;99.90
19397;DHT22;9834;48.076;11.878;2023-12-22T01:06:04;1.10;99.90
19397;DHT22;9834;48.076;11.878;2023-12-22T01:08:31;1.10;99.90
19397;DHT22;9834;48.076;11.878;2023-12-22T01:11:03;1.10;99.90
19397;DHT22;9834;48.076;11.878;2023-12-22T01:13:30;1.10;99.90
19397;DHT22;9834;48.076;11.878;2023-12-22T01:15:58;1.10;99.90
19397;DHT22;9834;48.076;11.878;2023-12-22T01:18:28;1.10;99.90
19397;DHT22;9834;48.076;11.878;2023-12-22T01:21:00;1.10;99.90
19397;DHT22;9834;48.076;11.878;2023-12-22T01:23:28;1.10;99.90
19397;DHT22;9834;48.076;11.878;2023-12-22T01:25:55;1.20;99.90
19397;DHT22;9834;48.076;11.878;2023-12-22T01:28:24;1.10;99.90
19397;DHT22;9834;48.076;11.878;2023-12-22T01:30:54;1.20;99.90
19397;DHT22;9834;48.076;11.878;2023-12-22T01:33:24;1.20;99.90
19397;DHT22;9834;48.076;11.878;2023-12-22T01:35:51;1.30;99.90
19397;DHT22;9834;48.076;11.878;2023-12-22T01:38:21;1.30;99.90
19397;DHT22;9834;48.076;11.878;2023-12-22T01:40:51;1.30;99.90
19397;DHT22;9834;48.076;11.878;2023-12-22T01:43:19;1.30;99.90
19397;DHT22;9834;48.076;11.878;2023-12-22T01:45:55;1.20;99.90
19397;DHT22;9834;48.076;11.878;2023-12-22T01:48:26;1.30;99.90
19397;DHT22;9834;48.076;11.878;2023-12-22T01:50:55;1.20;99.90
19397;DHT22;9834;48.076;11.878;2023-12-22T01:53:24;1.20;99.90
19397;DHT22;9834;48.076;11.878;2023-12-22T01:55:55;1.20;99.90
19397;DHT22;9834;48.076;11.878;2023-12-22T01:58:23;1.20;99.90
19397;DHT22;9834;48.076;11.878;2023-12-22T02:00:54;1.20;99.90
19397;DHT22;9834;48.076;11.878;2023-12-22T02:03:22;1.20;99.90
19397;DHT22;9834;48.076;11.878;2023-12-22T02:05:49;1.10;99.90
19397;DHT22;9834;48.076;11.878;2023-12-22T02:08:21;1.00;99.90
19397;DHT22;9834;48.076;11.878;2023-12-22T02:10:49;1.00;99.90
19397;DHT22;9834;48.076;11.878;2023-12-22T02:13:19;1.00;99.90
19397;DHT22;9834;48.076;11.878;2023-12-22T02:15:48;1.00;99.90
19397;DHT22;9834;48.076;11.878;2023-12-22T02:18:20;1.00;99.90
19397;DHT22;9834;48.076;11.878;2023-12-22T02:20:49;0.90;99.90
19397;DHT22;9834;48.076;11.878;2023-12-22T02:23:18;1.00;99.90
19397;DHT22;9834;48.076;11.878;2023-12-22T02:25:45;1.00;99.90
19397;DHT22;9834;48.076;11.878;2023-12-22T02:28:17;1.00;99.90
19397;DHT22;9834;48.076;11.878;2023-12-22T02:30:51;1.00;99.90
19397;DHT22;9834;48.076;11.878;2023-12-22T02:33:23;0.90;99.90
19397;DHT22;9834;48.076;11.878;2023-12-22T02:35:52;0.90;99.90
19397;DHT22;9834;48.076;11.878;2023-12-22T02:38:26;0.90;99.90
19397;DHT22;9834;48.076;11.878;2023-12-22T02:40:59;0.90;99.90
19397;DHT22;9834;48.076;11.878;2023-12-22T02:43:32;0.90;99.90
19397;DHT22;9834;48.076;11.878;2023-12-22T02:46:00;0.90;99.90
19397;DHT22;9834;48.076;11.878;2023-12-22T02:48:30;0.90;99.90
19397;DHT22;9834;48.076;11.878;2023-12-22T02:50:58;0.90;99.90
19397;DHT22;9834;48.076;11.878;2023-12-22T02:53:28;0.90;99.90
19397;DHT22;9834;48.076;11.878;2023-12-22T02:55:55;0.90;99.90
19397;DHT22;9834;48.076;11.878;2023-12-22T02:58:25;1.00;99.90
19397;DHT22;9834;48.076;11.878;2023-12-22T03:00:53;1.00;99.90
19397;DHT22;9834;48.076;11.878;2023-12-22T03:03:20;1.00;99.90
19397;DHT22;9834;48.076;11.878;2023-12-22T03:05:50;1.00;99.90
19397;DHT22;9834;48.076;11.878;2023-12-22T03:08:22;1.00;99.90
19397;DHT22;9834;48.076;11.878;2023-12-22T03:10:53;1.00;99.90
19397;DHT22;9834;48.076;11.878;2023-12-22T03:13:21;1.10;99.90
19397;DHT22;9834;48.076;11.878;2023-12-22T03:15:48;1.10;99.90
19397;DHT22;9834;48.076;11.878;2023-12-22T03:18:16;1.00;99.90
19397;DHT22;9834;48.076;11.878;2023-12-22T03:20:45;1.10;99.90
19397;DHT22;9834;48.076;11.878;2023-12-22T03:23:13;1.10;99.90
19397;DHT22;9834;48.076;11.878;2023-12-22T03:25:46;1.10;99.90
19397;DHT22;9834;48.076;11.878;2023-12-22T03:28:17;1.20;99.90
19397;DHT22;9834;48.076;11.878;2023-12-22T03:30:45;1.10;99.90
19397;DHT22;9834;48.076;11.878;2023-12-22T03:33:12;1.10;99.90
19397;DHT22;9834;48.076;11.878;2023-12-22T03:35:49;1.10;99.90
19397;DHT22;9834;48.076;11.878;2023-12-22T03:38:22;1.10;99.90
19397;DHT22;9834;48.076;11.878;2023-12-22T03:40:49;1.10;99.90
19397;DHT22;9834;48.076;11.878;2023-12-22T03:43:18;1.10;99.90
19397;DHT22;9834;48.076;11.878;2023-12-22T03:45:46;1.20;99.90
19397;DHT22;9834;48.076;11.878;2023-12-22T03:48:13;1.20;99.90
19397;DHT22;9834;48.076;11.878;2023-12-22T03:50:40;1.20;99.90
19397;DHT22;9834;48.076;11.878;2023-12-22T03:53:14;1.20;99.90
19397;DHT22;9834;48.076;11.878;2023-12-22T03:55:45;1.30;99.90
19397;DHT22;9834;48.076;11.878;2023-12-22T03:58:12;1.30;99.90
19397;DHT22;9834;48.076;11.878;2023-12-22T04:00:53;1.30;99.90
19397;DHT22;9834;48.076;11.878;2023-12-22T04:03:20;1.30;99.90
19397;DHT22;9834;48.076;11.878;2023-12-22T04:05:53;1.30;99.90
19397;DHT22;9834;48.076;11.878;2023-12-22T04:08:20;1.30;99.90
19397;DHT22;9834;48.076;11.878;2023-12-22T04:10:48;1.30;99.90
19397;DHT22;9834;48.076;11.878;2023-12-22T04:13:21;1.30;99.90
19397;DHT22;9834;48.076;11.878;2023-12-22T04:15:53;1.30;99.90
19397;DHT22;9834;48.076;11.878;2023-12-22T04:18:20;1.40;99.90
19397;DHT22;9834;48.076;11.878;2023-12-22T04:20:48;1.40;99.90
19397;DHT22;9834;48.076;11.878;2023-12-22T04:23:19;1.30;99.90
19397;DHT22;9834;48.076;11.878;2023-12-22T04:25:47;1.40;99.90
19397;DHT22;9834;48.076;11.878;2023-12-22T04:28:28;1.50;99.90
19397;DHT22;9834;48.076;11.878;2023-12-22T04:30:56;1.60;99.90
19397;DHT22;9834;48.076;11.878;2023-12-22T04:33:27;1.80;99.90
19397;DHT22;9834;48.076;11.878;2023-12-22T04:35:54;2.00;99.90
19397;DHT22;9834;48.076;11.878;2023-12-22T04:38:53;2.20;99.90
19397;DHT22;9834;48.076;11.878;2023-12-22T04:41:28;2.40;99.90
19397;DHT22;9834;48.076;11.878;2023-12-22T04:44:05;2.60;99.90
19397;DHT22;9834;48.076;11.878;2023-12-22T04:46:37;2.60;99.90
19397;DHT22;9834;48.076;11.878;2023-12-22T04:49:04;2.70;99.90
19397;DHT22;9834;48.076;11.878;2023-12-22T04:51:32;2.80;99.90
19397;DHT22;9834;48.076;11.878;2023-12-22T04:53:59;2.90;99.90
19397;DHT22;9834;48.076;11.878;2023-12-22T04:56:27;3.10;99.90
19397;DHT22;9834;48.076;11.878;2023-12-22T04:58:54;3.10;99.90
19397;DHT22;9834;48.076;11.878;2023-12-22T05:01:22;3.10;99.90
19397;DHT22;9834;48.076;11.878;2023-12-22T05:03:53;3.20;99.90
19397;DHT22;9834;48.076;11.878;2023-12-22T05:06:21;3.20;99.90
19397;DHT22;9834;48.076;11.878;2023-12-22T05:08:48;3.30;99.90
19397;DHT22;9834;48.076;11.878;2023-12-22T05:11:16;3.40;99.90
19397;DHT22;9834;48.076;11.878;2023-12-22T05:13:43;3.40;99.90
19397;DHT22;9834;48.076;11.878;2023-12-22T05:16:14;3.40;99.90
19397;DHT22;9834;48.076;11.878;2023-12-22T05:18:41;3.50;99.90
19397;DHT22;9834;48.076;11.878;2023-12-22T05:21:12;3.50;99.90
19397;DHT22;9834;48.076;11.878;2023-12-22T05:23:40;3.50;99.90
19397;DHT22;9834;48.076;11.878;2023-12-22T05:26:07;3.60;99.90
19397;DHT22;9834;48.076;11.878;2023-12-22T05:28:34;3.60;99.90
19397;DHT22;9834;48.076;11.878;2023-12-22T05:31:03;3.70;99.90
19397;DHT22;9834;48.076;11.878;2023-12-22T05:33:32;3.80;99.90
19397;DHT22;9834;48.076;11.878;2023-12-22T05:36:03;3.80;99.90
19397;DHT22;9834;48.076;11.878;2023-12-22T05:38:37;3.90;99.90
19397;DHT22;9834;48.076;11.878;2023-12-22T05:41:05;4.00;99.90
19397;DHT22;9834;48.076;11.878;2023-12-22T05:43:33;4.10;99.90
19397;DHT22;9834;48.076;11.878;2023-12-22T05:46:00;4.10;99.90
19397;DHT22;9834;48.076;11.878;2023-12-22T05:48:28;4.10;99.90
19397;DHT22;9834;48.076;11.878;2023-12-22T05:50:58;4.20;99.90
19397;DHT22;9834;48.076;11.878;2023-12-22T05:53:25;4.20;99.90
19397;DHT22;9834;48.076;11.878;2023-12-22T05:55:55;4.20;99.90
19397;DHT22;9834;48.076;11.878;2023-12-22T05:58:25;4.20;99.90
19397;DHT22;9834;48.076;11.878;2023-12-22T06:00:56;4.20;99.90
19397;DHT22;9834;48.076;11.878;2023-12-22T06:03:23;4.30;99.90
19397;DHT22;9834;48.076;11.878;2023-12-22T06:05:54;4.20;99.90
19397;DHT22;9834;48.076;11.878;2023-12-22T06:08:24;4.10;99.90
19397;DHT22;9834;48.076;11.878;2023-12-22T06:10:53;4.10;99.90
19397;DHT22;9834;48.076;11.878;2023-12-22T06:13:21;4.00;99.90
19397;DHT22;9834;48.076;11.878;2023-12-22T06:15:53;3.90;99.90
19397;DHT22;9834;48.076;11.878;2023-12-22T06:18:21;3.90;99.90
19397;DHT22;9834;48.076;11.878;2023-12-22T06:20:48;3.80;99.90
19397;DHT22;9834;48.076;11.878;2023-12-22T06:23:22;3.70;99.90
19397;DHT22;9834;48.076;11.878;2023-12-22T06:25:54;3.60;99.90
19397;DHT22;9834;48.076;11.878;2023-12-22T06:28:24;3.50;99.90
19397;DHT22;9834;48.076;11.878;2023-12-22T06:30:50;3.40;99.90
19397;DHT22;9834;48.076;11.878;2023-12-22T06:33:17;3.40;99.90
19397;DHT22;9834;48.076;11.878;2023-12-22T06:35:44;3.30;99.90
19397;DHT22;9834;48.076;11.878;2023-12-22T06:38:12;3.30;99.90
19397;DHT22;9834;48.076;11.878;2023-12-22T06:40:39;3.40;99.90
19397;DHT22;9834;48.076;11.878;2023-12-22T06:43:09;3.40;99.90
19397;DHT22;9834;48.076;11.878;2023-12-22T06:45:36;3.30;99.90
19397;DHT22;9834;48.076;11.878;2023-12-22T06:48:04;3.40;99.90
19397;DHT22;9834;48.076;11.878;2023-12-22T06:50:32;3.40;99.90
19397;DHT22;9834;48.076;11.878;2023-12-22T06:52:59;3.40;99.90
19397;DHT22;9834;48.076;11.878;2023-12-22T06:55:29;3.40;99.90
19397;DHT22;9834;48.076;11.878;2023-12-22T06:57:59;3.50;99.90
19397;DHT22;9834;48.076;11.878;2023-12-22T07:00:28;3.50;99.90
19397;DHT22;9834;48.076;11.878;2023-12-22T07:02:55;3.60;99.90
19397;DHT22;9834;48.076;11.878;2023-12-22T07:05:33;3.60;99.90
19397;DHT22;9834;48.076;11.878;2023-12-22T07:08:04;3.70;99.90
19397;DHT22;9834;48.076;11.878;2023-12-22T07:10:31;3.70;99.90
19397;DHT22;9834;48.076;11.878;2023-12-22T07:13:02;3.70;99.90
19397;DHT22;9834;48.076;11.878;2023-12-22T07:15:30;3.90;99.90
19397;DHT22;9834;48.076;11.878;2023-12-22T07:17:59;3.90;99.90
19397;DHT22;9834;48.076;11.878;2023-12-22T07:20:26;4.00;99.90
19397;DHT22;9834;48.076;11.878;2023-12-22T07:23:00;4.10;99.90
19397;DHT22;9834;48.076;11.878;2023-12-22T07:25:27;4.30;99.90
19397;DHT22;9834;48.076;11.878;2023-12-22T07:27:57;4.30;99.90
19397;DHT22;9834;48.076;11.878;2023-12-22T07:30:30;4.40;99.90
19397;DHT22;9834;48.076;11.878;2023-12-22T07:33:01;4.40;99.90
19397;DHT22;9834;48.076;11.878;2023-12-22T07:35:28;4.20;99.90
19397;DHT22;9834;48.076;11.878;2023-12-22T07:37:59;4.00;99.90
19397;DHT22;9834;48.076;11.878;2023-12-22T07:40:28;3.90;99.90
19397;DHT22;9834;48.076;11.878;2023-12-22T07:42:59;3.80;99.90
19397;DHT22;9834;48.076;11.878;2023-12-22T07:45:37;3.60;99.90
19397;DHT22;9834;48.076;11.878;2023-12-22T07:48:05;3.60;99.90
19397;DHT22;9834;48.076;11.878;2023-12-22T07:50:33;3.60;99.90
19397;DHT22;9834;48.076;11.878;2023-12-22T07:53:03;3.50;99.90
19397;DHT22;9834;48.076;11.878;2023-12-22T07:55:37;3.00;99.90
19397;DHT22;9834;48.076;11.878;2023-12-22T07:58:07;2.70;99.90
19397;DHT22;9834;48.076;11.878;2023-12-22T08:00:37;2.60;99.90
19397;DHT22;9834;48.076;11.878;2023-12-22T08:03:06;2.60;99.90
19397;DHT22;9834;48.076;11.878;2023-12-22T08:05:37;2.60;99.90
19397;DHT22;9834;48.076;11.878;2023-12-22T08:08:07;2.60;99.90
19397;DHT22;9834;48.076;11.878;2023-12-22T08:10:35;2.70;99.90
19397;DHT22;9834;48.076;11.878;2023-12-22T08:13:04;2.80;99.90
19397;DHT22;9834;48.076;11.878;2023-12-22T08:15:33;2.80;99.90
19397;DHT22;9834;48.076;11.878;2023-12-22T08:18:02;2.60;99.90
19397;DHT22;9834;48.076;11.878;2023-12-22T08:20:31;2.10;99.90
19397;DHT22;9834;48.076;11.878;2023-12-22T08:22:58;1.90;99.90
19397;DHT22;9834;48.076;11.878;2023-12-22T08:25:26;1.90;99.90
19397;DHT22;9834;48.076;11.878;2023-12-22T08:28:00;1.90;99.90
19397;DHT22;9834;48.076;11.878;2023-12-22T08:30:28;1.90;99.90
19397;DHT22;9834;48.076;11.878;2023-12-22T08:32:58;2.00;99.90
19397;DHT22;9834;48.076;11.878;2023-12-22T08:35:33;2.10;99.90
19397;DHT22;9834;48.076;11.878;2023-12-22T08:38:00;2.20;99.90
19397;DHT22;9834;48.076;11.878;2023-12-22T08:40:31;2.30;99.90
19397;DHT22;9834;48.076;11.878;2023-12-22T08:42:58;2.40;99.90
19397;DHT22;9834;48.076;11.878;2023-12-22T08:45:29;2.50;99.90
19397;DHT22;9834;48.076;11.878;2023-12-22T08:47:56;2.60;99.90
19397;DHT22;9834;48.076;11.878;2023-12-22T08:50:23;2.70;99.90
19397;DHT22;9834;48.076;11.878;2023-12-22T08:53:13;3.00;99.90
19397;DHT22;9834;48.076;11.878;2023-12-22T08:55:43;3.20;99.90
19397;DHT22;9834;48.076;11.878;2023-12-22T08:58:19;3.40;99.90
19397;DHT22;9834;48.076;11.878;2023-12-22T09:00:47;3.50;99.90
19397;DHT22;9834;48.076;11.878;2023-12-22T09:03:23;3.60;99.90
19397;DHT22;9834;48.076;11.878;2023-12-22T09:05:57;3.80;99.90
19397;DHT22;9834;48.076;11.878;2023-12-22T09:08:28;3.90;99.90
19397;DHT22;9834;48.076;11.878;2023-12-22T09:10:57;4.10;99.90
19397;DHT22;9834;48.076;11.878;2023-12-22T09:13:26;4.20;99.90
19397;DHT22;9834;48.076;11.878;2023-12-22T09:16:05;4.20;99.90
19397;DHT22;9834;48.076;11.878;2023-12-22T09:18:38;4.30;99.90
19397;DHT22;9834;48.076;11.878;2023-12-22T09:21:11;4.40;99.90
19397;DHT22;9834;48.076;11.878;2023-12-22T09:23:45;4.40;99.90
19397;DHT22;9834;48.076;11.878;2023-12-22T09:26:16;4.40;99.90
19397;DHT22;9834;48.076;11.878;2023-12-22T09:28:44;4.50;99.90
19397;DHT22;9834;48.076;11.878;2023-12-22T09:31:14;4.60;99.90
19397;DHT22;9834;48.076;11.878;2023-12-22T09:33:44;4.70;99.90
19397;DHT22;9834;48.076;11.878;2023-12-22T09:36:12;4.80;99.90
19397;DHT22;9834;48.076;11.878;2023-12-22T09:38:39;4.90;99.90
19397;DHT22;9834;48.076;11.878;2023-12-22T09:41:14;5.00;99.90
19397;DHT22;9834;48.076;11.878;2023-12-22T09:43:55;5.00;99.90
19397;DHT22;9834;48.076;11.878;2023-12-22T09:46:25;5.00;99.90
19397;DHT22;9834;48.076;11.878;2023-12-22T09:48:53;5.00;99.90
19397;DHT22;9834;48.076;11.878;2023-12-22T09:51:21;5.00;99.90
19397;DHT22;9834;48.076;11.878;2023-12-22T09:53:50;5.10;99.90
19397;DHT22;9834;48.076;11.878;2023-12-22T09:56:29;5.10;99.90
19397;DHT22;9834;48.076;11.878;2023-12-22T09:58:58;5.00;99.90
19397;DHT22;9834;48.076;11.878;2023-12-22T10:01:35;5.10;99.90
19397;DHT22;9834;48.076;11.878;2023-12-22T10:04:08;5.20;99.90
19397;DHT22;9834;48.076;11.878;2023-12-22T10:06:36;5.20;99.90
19397;DHT22;9834;48.076;11.878;2023-12-22T10:09:06;5.20;99.90
19397;DHT22;9834;48.076;11.878;2023-12-22T10:11:47;5.20;99.90
19397;DHT22;9834;48.076;11.878;2023-12-22T10:14:24;5.10;99.90
19397;DHT22;9834;48.076;11.878;2023-12-22T10:16:56;5.10;99.90
19397;DHT22;9834;48.076;11.878;2023-12-22T10:19:26;5.00;99.90
19397;DHT22;9834;48.076;11.878;2023-12-22T10:21:54;4.80;99.90
19397;DHT22;9834;48.076;11.878;2023-12-22T10:24:42;4.70;99.90
19397;DHT22;9834;48.076;11.878;2023-12-22T10:27:14;4.70;99.90
19397;DHT22;9834;48.076;11.878;2023-12-22T10:29:45;4.60;99.90
19397;DHT22;9834;48.076;11.878;2023-12-22T10:32:16;4.50;99.90
19397;DHT22;9834;48.076;11.878;2023-12-22T10:34:59;4.40;99.90
19397;DHT22;9834;48.076;11.878;2023-12-22T10:37:29;4.20;99.90
19397;DHT22;9834;48.076;11.878;2023-12-22T10:39:57;4.10;99.90
19397;DHT22;9834;48.076;11.878;2023-12-22T10:42:36;4.10;99.90
19397;DHT22;9834;48.076;11.878;2023-12-22T10:45:12;4.00;99.90
19397;DHT22;9834;48.076;11.878;2023-12-22T10:47:43;4.00;99.90
19397;DHT22;9834;48.076;11.878;2023-12-22T10:50:14;4.00;99.90
19397;DHT22;9834;48.076;11.878;2023-12-22T10:52:57;4.00;99.90
19397;DHT22;9834;48.076;11.878;2023-12-22T10:55:25;3.90;99.90
19397;DHT22;9834;48.076;11.878;2023-12-22T10:58:09;3.90;99.90
19397;DHT22;9834;48.076;11.878;2023-12-22T11:00:37;3.90;99.90
19397;DHT22;9834;48.076;11.878;2023-12-22T11:03:08;3.90;99.90
19397;DHT22;9834;48.076;11.878;2023-12-22T11:05:43;3.90;99.90
19397;DHT22;9834;48.076;11.878;2023-12-22T11:08:15;3.90;99.90
19397;DHT22;9834;48.076;11.878;2023-12-22T11:10:49;3.90;99.90
19397;DHT22;9834;48.076;11.878;2023-12-22T11:13:23;3.90;99.90
19397;DHT22;9834;48.076;11.878;2023-12-22T11:15:52;3.90;99.90
19397;DHT22;9834;48.076;11.878;2023-12-22T11:18:27;4.00;99.90
19397;DHT22;9834;48.076;11.878;2023-12-22T11:20:57;4.00;99.90
19397;DHT22;9834;48.076;11.878;2023-12-22T11:23:25;4.10;99.90
19397;DHT22;9834;48.076;11.878;2023-12-22T11:25:57;4.20;99.90
19397;DHT22;9834;48.076;11.878;2023-12-22T11:28:34;4.40;99.90
19397;DHT22;9834;48.076;11.878;2023-12-22T11:31:02;4.50;99.90
19397;DHT22;9834;48.076;11.878;2023-12-22T11:33:34;4.60;99.90
19397;DHT22;9834;48.076;11.878;2023-12-22T11:36:11;4.70;99.90
19397;DHT22;9834;48.076;11.878;2023-12-22T11:38:44;4.80;99.90
19397;DHT22;9834;48.076;11.878;2023-12-22T11:41:16;4.90;99.90
19397;DHT22;9834;48.076;11.878;2023-12-22T11:43:55;4.90;99.90
19397;DHT22;9834;48.076;11.878;2023-12-22T11:46:26;5.00;99.90
19397;DHT22;9834;48.076;11.878;2023-12-22T11:48:55;5.00;99.90
19397;DHT22;9834;48.076;11.878;2023-12-22T11:51:31;5.00;99.90
19397;DHT22;9834;48.076;11.878;2023-12-22T11:54:04;5.00;99.90
19397;DHT22;9834;48.076;11.878;2023-12-22T11:57:00;5.10;99.90
19397;DHT22;9834;48.076;11.878;2023-12-22T11:59:33;5.00;99.90
19397;DHT22;9834;48.076;11.878;2023-12-22T12:02:03;5.00;99.90
19397;DHT22;9834;48.076;11.878;2023-12-22T12:04:36;5.00;99.90
19397;DHT22;9834;48.076;11.878;2023-12-22T12:10:04;4.90;99.90
19397;DHT22;9834;48.076;11.878;2023-12-22T12:12:37;4.90;99.90
19397;DHT22;9834;48.076;11.878;2023-12-22T12:15:20;4.90;99.90
19397;DHT22;9834;48.076;11.878;2023-12-22T12:17:55;4.90;99.90
19397;DHT22;9834;48.076;11.878;2023-12-22T12:20:29;5.00;99.90
19397;DHT22;9834;48.076;11.878;2023-12-22T12:23:04;5.00;99.90
19397;DHT22;9834;48.076;11.878;2023-12-22T12:25:37;5.00;99.90
19397;DHT22;9834;48.076;11.878;2023-12-22T12:28:06;5.00;99.90
19397;DHT22;9834;48.076;11.878;2023-12-22T12:30:49;5.00;99.90
19397;DHT22;9834;48.076;11.878;2023-12-22T12:33:26;5.00;99.90
19397;DHT22;9834;48.076;11.878;2023-12-22T12:35:58;5.00;99.90
19397;DHT22;9834;48.076;11.878;2023-12-22T12:38:42;5.00;99.90
19397;DHT22;9834;48.076;11.878;2023-12-22T12:41:10;5.00;99.90
19397;DHT22;9834;48.076;11.878;2023-12-22T12:43:42;5.10;99.90
19397;DHT22;9834;48.076;11.878;2023-12-22T12:46:14;5.10;99.90
19397;DHT22;9834;48.076;11.878;2023-12-22T12:48:48;5.10;99.90
19397;DHT22;9834;48.076;11.878;2023-12-22T12:51:17;5.00;99.90
19397;DHT22;9834;48.076;11.878;2023-12-22T12:53:50;5.10;99.90
19397;DHT22;9834;48.076;11.878;2023-12-22T12:56:21;5.10;99.90
19397;DHT22;9834;48.076;11.878;2023-12-22T12:58:57;5.10;99.90
19397;DHT22;9834;48.076;11.878;2023-12-22T13:01:32;5.10;99.90
19397;DHT22;9834;48.076;11.878;2023-12-22T13:04:04;5.10;99.90
19397;DHT22;9834;48.076;11.878;2023-12-22T13:06:32;5.10;99.90
19397;DHT22;9834;48.076;11.878;2023-12-22T13:09:00;5.10;99.90
19397;DHT22;9834;48.076;11.878;2023-12-22T13:11:33;5.10;99.90
19397;DHT22;9834;48.076;11.878;2023-12-22T13:14:04;5.10;99.90
19397;DHT22;9834;48.076;11.878;2023-12-22T13:16:33;5.10;99.90
19397;DHT22;9834;48.076;11.878;2023-12-22T13:19:01;5.20;99.90
19397;DHT22;9834;48.076;11.878;2023-12-22T13:21:29;5.20;99.90
19397;DHT22;9834;48.076;11.878;2023-12-22T13:24:11;5.20;99.90
19397;DHT22;9834;48.076;11.878;2023-12-22T13:26:42;5.10;99.90
19397;DHT22;9834;48.076;11.878;2023-12-22T13:29:10;5.10;99.90
19397;DHT22;9834;48.076;11.878;2023-12-22T13:31:40;5.10;99.90
19397;DHT22;9834;48.076;11.878;2023-12-22T13:34:12;5.00;99.90
19397;DHT22;9834;48.076;11.878;2023-12-22T13:36:40;5.00;99.90
19397;DHT22;9834;48.076;11.878;2023-12-22T13:39:09;5.00;99.90
19397;DHT22;9834;48.076;11.878;2023-12-22T13:41:39;4.90;99.90
19397;DHT22;9834;48.076;11.878;2023-12-22T13:44:11;4.90;99.90
19397;DHT22;9834;48.076;11.878;2023-12-22T13:46:43;4.90;99.90
19397;DHT22;9834;48.076;11.878;2023-12-22T13:49:16;4.90;99.90
19397;DHT22;9834;48.076;11.878;2023-12-22T13:51:44;4.90;99.90
19397;DHT22;9834;48.076;11.878;2023-12-22T13:54:13;4.80;99.90
19397;DHT22;9834;48.076;11.878;2023-12-22T13:56:58;4.80;99.90
19397;DHT22;9834;48.076;11.878;2023-12-22T13:59:32;4.90;99.90
19397;DHT22;9834;48.076;11.878;2023-12-22T14:02:01;4.90;99.90
19397;DHT22;9834;48.076;11.878;2023-12-22T14:04:32;4.90;99.90
19397;DHT22;9834;48.076;11.878;2023-12-22T14:07:01;4.90;99.90
19397;DHT22;9834;48.076;11.878;2023-12-22T14:09:28;4.90;99.90
19397;DHT22;9834;48.076;11.878;2023-12-22T14:12:05;4.90;99.90
19397;DHT22;9834;48.076;11.878;2023-12-22T14:14:34;4.90;99.90
19397;DHT22;9834;48.076;11.878;2023-12-22T14:17:06;4.90;99.90
19397;DHT22;9834;48.076;11.878;2023-12-22T14:19:33;5.00;99.90
19397;DHT22;9834;48.076;11.878;2023-12-22T14:22:01;5.00;99.90
19397;DHT22;9834;48.076;11.878;2023-12-22T14:24:35;5.00;99.90
19397;DHT22;9834;48.076;11.878;2023-12-22T14:27:06;5.00;99.90
19397;DHT22;9834;48.076;11.878;2023-12-22T14:29:34;5.10;99.90
19397;DHT22;9834;48.076;11.878;2023-12-22T14:32:10;5.10;99.90
19397;DHT22;9834;48.076;11.878;2023-12-22T14:34:38;5.10;99.90
19397;DHT22;9834;48.076;11.878;2023-12-22T14:37:16;5.10;99.90
19397;DHT22;9834;48.076;11.878;2023-12-22T14:39:45;5.10;99.90
19397;DHT22;9834;48.076;11.878;2023-12-22T14:42:12;5.60;99.90
19397;DHT22;9834;48.076;11.878;2023-12-22T14:44:52;5.10;99.90
19397;DHT22;9834;48.076;11.878;2023-12-22T14:47:32;5.20;99.90
19397;DHT22;9834;48.076;11.878;2023-12-22T14:50:07;5.20;99.90
19397;DHT22;9834;48.076;11.878;2023-12-22T14:52:34;5.20;99.90
19397;DHT22;9834;48.076;11.878;2023-12-22T14:55:10;5.20;99.90
19397;DHT22;9834;48.076;11.878;2023-12-22T14:57:39;5.30;99.90
19397;DHT22;9834;48.076;11.878;2023-12-22T15:00:11;5.30;99.90
19397;DHT22;9834;48.076;11.878;2023-12-22T15:02:40;5.40;99.90
19397;DHT22;9834;48.076;11.878;2023-12-22T15:05:13;5.40;99.90
19397;DHT22;9834;48.076;11.878;2023-12-22T15:07:43;5.40;99.90
19397;DHT22;9834;48.076;11.878;2023-12-22T15:10:17;5.40;99.90
19397;DHT22;9834;48.076;11.878;2023-12-22T15:12:50;5.40;99.90
19397;DHT22;9834;48.076;11.878;2023-12-22T15:15:18;5.40;99.90
19397;DHT22;9834;48.076;11.878;2023-12-22T15:17:52;5.50;99.90
19397;DHT22;9834;48.076;11.878;2023-12-22T15:20:21;5.40;99.90
19397;DHT22;9834;48.076;11.878;2023-12-22T15:22:56;5.50;99.90
19397;DHT22;9834;48.076;11.878;2023-12-22T15:25:24;5.50;99.90
19397;DHT22;9834;48.076;11.878;2023-12-22T15:28:05;5.50;99.90
19397;DHT22;9834;48.076;11.878;2023-12-22T15:30:37;5.50;99.90
19397;DHT22;9834;48.076;11.878;2023-12-22T15:33:13;5.50;99.90
19397;DHT22;9834;48.076;11.878;2023-12-22T15:35:41;5.60;99.90
19397;DHT22;9834;48.076;11.878;2023-12-22T15:38:15;5.60;99.90
19397;DHT22;9834;48.076;11.878;2023-12-22T15:40:43;5.60;99.90
19397;DHT22;9834;48.076;11.878;2023-12-22T15:43:13;5.60;99.90
19397;DHT22;9834;48.076;11.878;2023-12-22T15:45:40;5.60;99.90
19397;DHT22;9834;48.076;11.878;2023-12-22T15:48:22;5.60;99.90
19397;DHT22;9834;48.076;11.878;2023-12-22T15:50:52;5.60;99.90
19397;DHT22;9834;48.076;11.878;2023-12-22T15:53:25;5.60;99.90
19397;DHT22;9834;48.076;11.878;2023-12-22T15:55:53;5.60;99.90
19397;DHT22;9834;48.076;11.878;2023-12-22T15:58:23;5.70;99.90
19397;DHT22;9834;48.076;11.878;2023-12-22T16:00:53;5.80;99.90
19397;DHT22;9834;48.076;11.878;2023-12-22T16:03:24;5.80;99.90
19397;DHT22;9834;48.076;11.878;2023-12-22T16:05:55;5.80;99.90
19397;DHT22;9834;48.076;11.878;2023-12-22T16:08:25;5.80;99.90
19397;DHT22;9834;48.076;11.878;2023-12-22T16:10:53;5.80;99.90